createdAt,value
2023-02-05T00:03:05.585Z,3.90
2023-02-05T00:08:02.964Z,3.80
2023-02-05T00:20:28.620Z,3.70
2023-02-05T00:22:57.105Z,3.70
2023-02-05T00:25:25.390Z,3.70
2023-02-05T00:37:50.143Z,3.90
2023-02-05T00:40:20.009Z,3.90
2023-02-05T00:45:17.391Z,3.90
2023-02-05T00:47:45.604Z,3.90
2023-02-05T00:55:12.366Z,3.90
2023-02-05T01:00:11.635Z,3.80
2023-02-05T01:05:09.352Z,3.70
2023-02-05T01:10:07.642Z,3.70
2023-02-05T01:12:37.377Z,3.70
2023-02-05T01:15:09.106Z,3.80
2023-02-05T01:17:37.343Z,3.80
2023-02-05T01:20:06.866Z,3.80
2023-02-05T01:27:33.877Z,3.90
2023-02-05T01:30:04.391Z,3.50
2023-02-05T01:35:01.285Z,4.00
2023-02-05T01:37:29.601Z,4.00
2023-02-05T01:42:29.244Z,4.00
2023-02-05T01:46:08.047Z,4.00
2023-02-05T01:51:15.414Z,3.90
2023-02-05T01:53:46.515Z,3.90
2023-02-05T01:56:21.374Z,3.90
2023-02-05T01:58:55.598Z,3.90
2023-02-05T02:03:58.314Z,4.00
2023-02-05T02:11:27.629Z,4.00
2023-02-05T02:14:00.123Z,4.00
2023-02-05T02:16:30.006Z,4.10
2023-02-05T02:19:00.330Z,4.10
2023-02-05T02:22:12.016Z,4.10
2023-02-05T02:25:33.754Z,4.10
2023-02-05T02:28:10.751Z,4.10
2023-02-05T02:30:44.939Z,4.10
2023-02-05T02:33:21.986Z,4.10
2023-02-05T02:36:00.454Z,4.10
2023-02-05T02:38:34.170Z,4.10
2023-02-05T02:41:12.663Z,4.00
2023-02-05T02:43:51.135Z,4.00
2023-02-05T02:46:25.872Z,4.00
2023-02-05T02:48:58.335Z,4.00
2023-02-05T02:51:29.918Z,4.00
2023-02-05T02:54:01.176Z,4.00
2023-02-05T02:56:32.120Z,4.00
2023-02-05T02:59:07.491Z,4.10
2023-02-05T03:01:46.919Z,4.10
2023-02-05T03:04:24.995Z,4.10
2023-02-05T03:06:58.049Z,4.20
2023-02-05T03:09:33.362Z,4.20
2023-02-05T03:14:32.347Z,4.20
2023-02-05T03:22:05.702Z,4.20
2023-02-05T03:29:38.883Z,4.10
2023-02-05T03:32:28.057Z,4.10
2023-02-05T03:35:14.682Z,4.10
2023-02-05T03:37:57.206Z,4.10
2023-02-05T03:40:39.133Z,4.10
2023-02-05T03:43:17.665Z,4.10
2023-02-05T03:45:59.333Z,4.20
2023-02-05T03:48:48.474Z,4.10
2023-02-05T03:51:33.911Z,4.10
2023-02-05T03:54:12.817Z,4.10
2023-02-05T03:56:52.906Z,4.10
2023-02-05T03:59:23.050Z,4.10
2023-02-05T04:01:54.724Z,4.10
2023-02-05T04:04:23.447Z,4.10
2023-02-05T04:06:54.323Z,4.10
2023-02-05T04:16:54.074Z,4.10
2023-02-05T04:31:54.880Z,4.20
2023-02-05T04:34:23.116Z,4.30
2023-02-05T04:39:20.124Z,4.30
2023-02-05T04:44:16.943Z,4.40
2023-02-05T04:46:45.275Z,4.40
2023-02-05T04:49:14.867Z,4.40
2023-02-05T04:56:40.946Z,4.40
2023-02-05T05:06:36.261Z,4.20
2023-02-05T05:18:58.731Z,4.20
2023-02-05T05:23:56.792Z,4.20
2023-02-05T05:28:55.120Z,4.20
2023-02-05T05:41:41.341Z,4.30
2023-02-05T05:54:06.183Z,4.30
2023-02-05T05:56:36.216Z,4.30
2023-02-05T06:13:59.778Z,4.30
2023-02-05T06:16:28.093Z,4.30
2023-02-05T06:18:56.907Z,4.30
2023-02-05T06:21:25.368Z,4.30
2023-02-05T06:31:21.013Z,4.30
2023-02-05T06:41:14.758Z,4.30
2023-02-05T06:48:42.047Z,4.10
2023-02-05T06:56:08.079Z,3.90
2023-02-05T07:06:06.503Z,3.70
2023-02-05T07:13:32.503Z,3.70
2023-02-05T07:16:05.243Z,3.70
2023-02-05T07:21:08.355Z,3.70
2023-02-05T07:23:37.089Z,3.70
2023-02-05T07:26:09.628Z,3.70
2023-02-05T07:31:08.141Z,3.70
2023-02-05T07:36:09.270Z,3.80
2023-02-05T07:43:36.544Z,3.80
2023-02-05T07:46:07.808Z,3.80
2023-02-05T07:48:36.818Z,3.80
2023-02-05T07:56:05.058Z,3.80
2023-02-05T08:01:02.982Z,3.70
2023-02-05T08:03:31.836Z,3.80
2023-02-05T08:08:30.500Z,3.80
2023-02-05T08:11:00.945Z,3.80
2023-02-05T08:13:30.345Z,3.90
2023-02-05T08:20:58.647Z,3.90
2023-02-05T08:25:59.409Z,3.90
2023-02-05T08:28:29.235Z,3.90
2023-02-05T08:38:26.619Z,4.00
2023-02-05T08:40:54.799Z,4.10
2023-02-05T08:43:24.910Z,4.10
2023-02-05T08:48:22.944Z,4.10
2023-02-05T08:50:51.800Z,4.10
2023-02-05T08:55:56.962Z,4.20
2023-02-05T08:58:26.921Z,4.20
2023-02-05T09:05:59.288Z,4.30
2023-02-05T09:08:31.122Z,4.30
2023-02-05T09:13:29.715Z,4.40
2023-02-05T09:15:57.989Z,4.40
2023-02-05T09:30:51.610Z,4.30
2023-02-05T09:38:18.600Z,4.40
2023-02-05T09:40:59.253Z,4.40
2023-02-05T09:43:46.885Z,4.40
2023-02-05T09:46:27.495Z,4.50
2023-02-05T09:49:01.939Z,4.40
2023-02-05T09:51:35.989Z,4.40
2023-02-05T09:54:16.195Z,4.40
2023-02-05T09:56:46.753Z,4.40
2023-02-05T09:59:18.215Z,4.40
2023-02-05T10:01:52.902Z,4.40
2023-02-05T10:04:21.527Z,4.40
2023-02-05T10:07:20.656Z,4.40
2023-02-05T10:10:24.559Z,4.40
2023-02-05T10:13:24.839Z,4.40
2023-02-05T10:16:15.084Z,4.40
2023-02-05T10:19:09.974Z,4.40
2023-02-05T10:22:02.424Z,4.40
2023-02-05T10:25:05.663Z,4.40
2023-02-05T10:27:44.493Z,4.40
2023-02-05T10:30:22.257Z,4.40
2023-02-05T10:32:58.643Z,4.50
2023-02-05T10:35:37.541Z,4.50
2023-02-05T10:38:11.518Z,4.50
2023-02-05T10:40:44.024Z,4.50
2023-02-05T10:43:22.483Z,4.50
2023-02-05T10:45:52.418Z,4.60
2023-02-05T10:48:40.696Z,4.60
2023-02-05T10:51:15.999Z,4.60
2023-02-05T10:53:45.095Z,4.60
2023-02-05T10:56:19.782Z,4.60
2023-02-05T10:58:54.043Z,4.60
2023-02-05T11:01:24.928Z,4.60
2023-02-05T11:03:58.929Z,4.60
2023-02-05T11:06:33.513Z,4.60
2023-02-05T11:09:01.589Z,4.60
2023-02-05T11:11:32.914Z,4.50
2023-02-05T11:14:05.500Z,4.50
2023-02-05T11:16:40.236Z,4.50
2023-02-05T11:19:21.484Z,4.60
2023-02-05T11:21:55.095Z,4.50
2023-02-05T11:24:28.485Z,4.60
2023-02-05T11:27:32.007Z,4.60
2023-02-05T11:30:52.177Z,4.60
2023-02-05T11:33:31.206Z,4.70
2023-02-05T11:36:03.475Z,4.60
2023-02-05T11:38:45.399Z,4.60
2023-02-05T11:41:26.486Z,4.60
2023-02-05T11:43:56.336Z,4.60
2023-02-05T11:46:27.165Z,4.60
2023-02-05T11:49:01.836Z,4.70
2023-02-05T11:51:40.113Z,4.70
2023-02-05T11:54:22.039Z,4.70
2023-02-05T11:57:28.223Z,4.70
2023-02-05T11:59:58.678Z,4.70
2023-02-05T12:02:33.882Z,4.80
2023-02-05T12:05:14.223Z,4.70
2023-02-05T12:07:48.938Z,4.80
2023-02-05T12:10:26.693Z,4.80
2023-02-05T12:13:10.127Z,4.80
2023-02-05T12:15:46.044Z,4.80
2023-02-05T12:18:29.458Z,4.80
2023-02-05T12:21:14.246Z,4.80
2023-02-05T12:24:17.064Z,4.80
2023-02-05T12:26:50.163Z,4.80
2023-02-05T12:29:39.437Z,4.80
2023-02-05T12:32:22.154Z,4.80
2023-02-05T12:35:13.853Z,4.90
2023-02-05T12:37:50.196Z,4.90
2023-02-05T12:40:45.073Z,4.90
2023-02-05T12:43:32.159Z,5.00
2023-02-05T12:46:20.620Z,5.00
2023-02-05T12:49:10.121Z,5.00
2023-02-05T12:51:53.789Z,5.00
2023-02-05T12:54:57.776Z,5.00
2023-02-05T12:57:34.037Z,5.00
2023-02-05T13:00:14.307Z,5.00
2023-02-05T13:02:55.463Z,5.00
2023-02-05T13:05:32.460Z,5.10
2023-02-05T13:08:07.731Z,5.00
2023-02-05T13:10:48.085Z,5.00
2023-02-05T13:13:21.992Z,5.10
2023-02-05T13:16:02.368Z,5.10
2023-02-05T13:18:35.245Z,5.10
2023-02-05T13:21:26.324Z,5.20
2023-02-05T13:24:20.419Z,5.20
2023-02-05T13:27:12.448Z,5.20
2023-02-05T13:29:51.240Z,5.20
2023-02-05T13:32:25.274Z,5.30
2023-02-05T13:37:52.749Z,5.30
2023-02-05T13:40:44.910Z,5.30
2023-02-05T13:44:19.571Z,5.30
2023-02-05T13:47:34.184Z,5.30
2023-02-05T13:50:26.480Z,5.30
2023-02-05T13:53:24.868Z,5.30
2023-02-05T13:56:18.218Z,5.30
2023-02-05T13:58:51.277Z,5.30
2023-02-05T14:01:25.295Z,5.30
2023-02-05T14:04:00.409Z,5.30
2023-02-05T14:06:32.962Z,5.30
2023-02-05T14:09:06.406Z,5.40
2023-02-05T14:11:53.057Z,5.40
2023-02-05T14:14:32.031Z,5.40
2023-02-05T14:17:01.665Z,5.50
2023-02-05T14:19:58.531Z,5.50
2023-02-05T14:22:41.326Z,5.50
2023-02-05T14:26:01.602Z,5.50
2023-02-05T14:28:47.951Z,5.50
2023-02-05T14:31:58.453Z,5.50
2023-02-05T14:34:48.515Z,5.60
2023-02-05T14:37:39.136Z,5.60
2023-02-05T14:40:28.701Z,5.60
2023-02-05T14:43:09.907Z,5.60
2023-02-05T14:45:46.087Z,5.60
2023-02-05T14:48:28.195Z,5.60
2023-02-05T14:51:06.283Z,5.50
2023-02-05T14:53:39.819Z,5.50
2023-02-05T14:56:08.816Z,5.50
2023-02-05T14:58:40.779Z,5.60
2023-02-05T15:01:44.637Z,5.50
2023-02-05T15:04:34.694Z,5.60
2023-02-05T15:07:12.256Z,5.60
2023-02-05T15:09:46.667Z,5.60
2023-02-05T15:12:53.822Z,5.60
2023-02-05T15:15:33.349Z,5.60
2023-02-05T15:18:14.698Z,5.60
2023-02-05T15:20:49.248Z,5.60
2023-02-05T15:23:40.844Z,5.60
2023-02-05T15:26:22.185Z,5.60
2023-02-05T15:29:01.026Z,5.60
2023-02-05T15:31:38.014Z,5.60
2023-02-05T15:34:37.163Z,5.60
2023-02-05T15:37:16.691Z,5.60
2023-02-05T15:39:52.293Z,5.60
2023-02-05T15:42:30.734Z,5.60
2023-02-05T15:47:29.586Z,5.60
2023-02-05T15:50:01.867Z,5.60
2023-02-05T15:52:33.705Z,5.60
2023-02-05T15:55:11.456Z,5.50
2023-02-05T15:57:41.185Z,5.50
2023-02-05T16:00:12.018Z,5.50
2023-02-05T16:05:21.849Z,5.50
2023-02-05T16:07:55.394Z,5.50
2023-02-05T16:10:26.821Z,5.50
2023-02-05T16:13:03.678Z,5.50
2023-02-05T16:15:37.273Z,5.50
2023-02-05T16:18:12.530Z,5.40
2023-02-05T16:20:45.899Z,5.40
2023-02-05T16:23:28.970Z,5.40
2023-02-05T16:26:03.644Z,5.40
2023-02-05T16:28:39.573Z,5.40
2023-02-05T16:31:10.060Z,5.40
2023-02-05T16:33:45.913Z,5.40
2023-02-05T16:36:22.007Z,5.40
2023-02-05T16:38:57.512Z,5.30
2023-02-05T16:41:30.017Z,5.30
2023-02-05T16:44:03.685Z,5.30
2023-02-05T16:46:33.099Z,5.30
2023-02-05T16:49:03.588Z,5.30
2023-02-05T16:51:55.180Z,5.30
2023-02-05T16:54:38.399Z,5.30
2023-02-05T16:57:12.810Z,5.30
2023-02-05T16:59:52.659Z,5.30
2023-02-05T17:02:33.781Z,5.30
2023-02-05T17:05:03.545Z,5.30
2023-02-05T17:07:32.582Z,5.30
2023-02-05T17:10:21.279Z,5.30
2023-02-05T17:12:57.228Z,5.20
2023-02-05T17:15:40.046Z,5.20
2023-02-05T17:18:29.134Z,5.20
2023-02-05T17:21:22.646Z,5.20
2023-02-05T17:23:51.915Z,5.20
2023-02-05T17:26:21.448Z,5.20
2023-02-05T17:28:54.595Z,5.20
2023-02-05T17:31:26.512Z,5.10
2023-02-05T17:33:58.461Z,5.20
2023-02-05T17:36:27.692Z,5.10
2023-02-05T17:41:44.531Z,5.10
2023-02-05T17:44:14.160Z,5.10
2023-02-05T17:46:44.832Z,5.10
2023-02-05T17:51:42.858Z,5.10
2023-02-05T17:54:16.319Z,5.10
2023-02-05T17:56:45.500Z,5.10
2023-02-05T17:59:17.472Z,5.10
2023-02-05T18:01:47.812Z,5.10
2023-02-05T18:04:18.575Z,5.10
2023-02-05T18:06:49.596Z,5.00
2023-02-05T18:16:46.558Z,5.00
2023-02-05T18:34:10.601Z,4.80
2023-02-05T18:41:38.882Z,4.70
2023-02-05T18:46:35.844Z,4.70
2023-02-05T18:51:34.080Z,4.70
2023-02-05T18:56:30.969Z,4.70
2023-02-05T18:59:02.874Z,4.70
2023-02-05T19:04:03.652Z,4.70
2023-02-05T19:06:34.133Z,4.70
2023-02-05T19:11:33.950Z,4.60
2023-02-05T19:14:05.041Z,4.60
2023-02-05T19:16:36.475Z,4.60
2023-02-05T19:19:05.787Z,4.50
2023-02-05T19:21:36.218Z,4.60
2023-02-05T19:24:07.246Z,4.60
2023-02-05T19:26:37.664Z,4.50
2023-02-05T19:29:08.339Z,4.50
2023-02-05T19:31:38.268Z,4.50
2023-02-05T19:34:07.625Z,4.50
2023-02-05T19:36:38.070Z,4.50
2023-02-05T19:39:09.814Z,4.50
2023-02-05T19:41:40.094Z,4.50
2023-02-05T19:44:10.230Z,4.50
2023-02-05T19:46:41.862Z,4.50
2023-02-05T19:49:15.319Z,4.50
2023-02-05T19:51:48.000Z,4.50
2023-02-05T19:54:17.232Z,4.50
2023-02-05T19:56:46.028Z,4.50
2023-02-05T19:59:16.249Z,4.50
2023-02-05T20:01:45.536Z,4.50
2023-02-05T20:04:17.528Z,4.50
2023-02-05T20:06:48.063Z,4.50
2023-02-05T20:09:18.012Z,4.50
2023-02-05T20:11:49.768Z,4.50
2023-02-05T20:14:18.572Z,4.40
2023-02-05T20:16:47.373Z,4.40
2023-02-05T20:19:17.982Z,4.40
2023-02-05T20:21:48.594Z,4.40
2023-02-05T20:26:48.712Z,4.40
2023-02-05T20:34:35.980Z,4.40
2023-02-05T20:37:09.375Z,4.40
2023-02-05T20:42:13.540Z,4.40
2023-02-05T20:44:43.355Z,4.40
2023-02-05T20:47:15.529Z,4.40
2023-02-05T21:04:37.716Z,4.30
2023-02-05T21:07:05.958Z,4.40
2023-02-05T21:09:35.818Z,4.30
2023-02-05T21:12:04.157Z,4.30
2023-02-05T21:14:32.964Z,4.30
2023-02-05T21:26:57.705Z,4.30
2023-02-05T21:34:27.315Z,4.20
2023-02-05T21:36:57.104Z,4.20
2023-02-05T21:39:25.985Z,4.20
2023-02-05T21:41:54.639Z,4.10
2023-02-05T21:44:25.400Z,4.10
2023-02-05T21:46:55.228Z,4.00
2023-02-05T21:49:23.903Z,4.00
2023-02-05T21:51:53.247Z,4.00
2023-02-05T21:54:25.467Z,3.90
2023-02-05T21:56:54.260Z,3.90
2023-02-05T21:59:24.323Z,3.90
2023-02-05T22:01:53.119Z,3.90
2023-02-05T22:06:52.174Z,3.90
2023-02-05T22:11:51.307Z,3.90
2023-02-05T22:16:49.498Z,3.90
2023-02-05T22:19:17.788Z,3.90
2023-02-05T22:24:17.231Z,4.00
2023-02-05T22:26:46.902Z,4.00
2023-02-05T22:29:18.122Z,4.00
2023-02-05T22:31:50.088Z,4.00
2023-02-05T22:34:20.207Z,4.00
2023-02-05T22:36:48.657Z,3.90
2023-02-05T22:44:14.373Z,3.80
2023-02-05T22:46:45.273Z,3.80
2023-02-05T22:49:15.719Z,3.70
2023-02-05T22:51:45.768Z,3.70
2023-02-05T22:54:16.041Z,3.70
2023-02-05T23:04:11.635Z,3.80
2023-02-05T23:06:42.356Z,3.70
2023-02-05T23:09:15.116Z,3.50
2023-02-05T23:11:44.253Z,3.80
2023-02-05T23:14:14.419Z,3.80
2023-02-05T23:16:45.274Z,3.80
2023-02-05T23:19:16.881Z,3.80
2023-02-05T23:24:15.615Z,3.90
2023-02-05T23:26:47.040Z,3.80
2023-02-05T23:29:16.900Z,3.90
2023-02-05T23:41:41.894Z,3.90
2023-02-05T23:44:14.176Z,3.80
2023-02-05T23:46:44.012Z,3.80
2023-02-05T23:49:13.092Z,3.80
2023-02-05T23:54:12.417Z,3.80
2023-02-05T23:56:42.632Z,3.80
2023-02-05T23:59:13.770Z,3.70
